Weather at Charlotte County Airport

Public forecast

Using degrees Fahrenheit for public forecast. Weather courtesy of forecast.io.

Current aviation weather report (METAR) for Charlotte County Airport

Retrieved 2020/12/01 21:53 UTC (52 minutes ago):

KPGD 012153Z 01006KT 10SM CLR 16/02 A3016 RMK AO2 SLP211 T01560022

Aviation forecast (TAF) for Charlotte County Airport

Retrieved 2020/12/01 18:30 UTC (4 hours ago):

TAF KPGD 011728Z 0118/0218 01012KT P6SM SKC FM020000 01007KT P6SM SKC FM020900 04008KT P6SM SKC